sensor_id;sensor_type;location;lat;lon;timestamp;temperature;humidity
4643;DHT22;2334;48.710;9.622;2022-12-29T00:01:41;3.50;99.90
4643;DHT22;2334;48.710;9.622;2022-12-29T00:04:12;3.50;99.90
4643;DHT22;2334;48.710;9.622;2022-12-29T00:06:39;3.50;99.90
4643;DHT22;2334;48.710;9.622;2022-12-29T00:09:06;3.60;99.90
4643;DHT22;2334;48.710;9.622;2022-12-29T00:11:34;3.50;99.90
4643;DHT22;2334;48.710;9.622;2022-12-29T00:14:01;3.50;99.90
4643;DHT22;2334;48.710;9.622;2022-12-29T00:16:46;3.50;99.90
4643;DHT22;2334;48.710;9.622;2022-12-29T00:19:13;3.50;99.90
4643;DHT22;2334;48.710;9.622;2022-12-29T00:21:53;3.50;99.90
4643;DHT22;2334;48.710;9.622;2022-12-29T00:24:49;3.50;99.90
4643;DHT22;2334;48.710;9.622;2022-12-29T00:27:35;3.50;99.90
4643;DHT22;2334;48.710;9.622;2022-12-29T00:30:22;3.50;99.90
4643;DHT22;2334;48.710;9.622;2022-12-29T00:33:10;3.50;99.90
4643;DHT22;2334;48.710;9.622;2022-12-29T00:35:57;3.60;99.90
4643;DHT22;2334;48.710;9.622;2022-12-29T00:38:25;3.60;99.90
4643;DHT22;2334;48.710;9.622;2022-12-29T00:41:10;3.60;99.90
4643;DHT22;2334;48.710;9.622;2022-12-29T00:43:52;3.60;99.90
4643;DHT22;2334;48.710;9.622;2022-12-29T00:46:36;3.70;99.90
4643;DHT22;2334;48.710;9.622;2022-12-29T00:49:04;3.70;99.90
4643;DHT22;2334;48.710;9.622;2022-12-29T00:51:49;3.70;99.90
4643;DHT22;2334;48.710;9.622;2022-12-29T00:54:17;3.70;99.90
4643;DHT22;2334;48.710;9.622;2022-12-29T00:56:46;3.70;99.90
4643;DHT22;2334;48.710;9.622;2022-12-29T00:59:15;3.70;99.90
4643;DHT22;2334;48.710;9.622;2022-12-29T01:01:42;3.80;99.90
4643;DHT22;2334;48.710;9.622;2022-12-29T01:04:09;3.80;99.90
4643;DHT22;2334;48.710;9.622;2022-12-29T01:06:38;3.80;99.90
4643;DHT22;2334;48.710;9.622;2022-12-29T01:09:06;3.80;99.90
4643;DHT22;2334;48.710;9.622;2022-12-29T01:11:47;3.90;99.90
4643;DHT22;2334;48.710;9.622;2022-12-29T01:14:15;3.90;99.90
4643;DHT22;2334;48.710;9.622;2022-12-29T01:16:42;3.90;99.90
4643;DHT22;2334;48.710;9.622;2022-12-29T01:19:09;4.00;99.90
4643;DHT22;2334;48.710;9.622;2022-12-29T01:21:36;4.00;99.90
4643;DHT22;2334;48.710;9.622;2022-12-29T01:24:03;4.00;99.90
4643;DHT22;2334;48.710;9.622;2022-12-29T01:26:32;4.00;99.90
4643;DHT22;2334;48.710;9.622;2022-12-29T01:28:59;4.00;99.90
4643;DHT22;2334;48.710;9.622;2022-12-29T01:31:27;4.00;99.90
4643;DHT22;2334;48.710;9.622;2022-12-29T01:33:54;3.90;99.90
4643;DHT22;2334;48.710;9.622;2022-12-29T01:36:21;4.00;99.90
4643;DHT22;2334;48.710;9.622;2022-12-29T01:38:48;4.00;99.90
4643;DHT22;2334;48.710;9.622;2022-12-29T01:41:16;4.00;99.90
4643;DHT22;2334;48.710;9.622;2022-12-29T01:43:44;4.00;99.90
4643;DHT22;2334;48.710;9.622;2022-12-29T01:46:23;3.90;99.90
4643;DHT22;2334;48.710;9.622;2022-12-29T01:48:55;3.90;99.90
4643;DHT22;2334;48.710;9.622;2022-12-29T01:51:24;3.90;99.90
4643;DHT22;2334;48.710;9.622;2022-12-29T01:53:53;3.90;99.90
4643;DHT22;2334;48.710;9.622;2022-12-29T01:56:22;3.90;99.90
4643;DHT22;2334;48.710;9.622;2022-12-29T01:58:54;3.90;99.90
4643;DHT22;2334;48.710;9.622;2022-12-29T02:01:22;4.00;99.90
4643;DHT22;2334;48.710;9.622;2022-12-29T02:03:50;4.00;99.90
4643;DHT22;2334;48.710;9.622;2022-12-29T02:06:21;4.10;99.90
4643;DHT22;2334;48.710;9.622;2022-12-29T02:08:50;4.10;99.90
4643;DHT22;2334;48.710;9.622;2022-12-29T02:11:19;4.10;99.90
4643;DHT22;2334;48.710;9.622;2022-12-29T02:13:48;4.10;99.90
4643;DHT22;2334;48.710;9.622;2022-12-29T02:16:25;4.10;99.90
4643;DHT22;2334;48.710;9.622;2022-12-29T02:19:18;4.10;99.90
4643;DHT22;2334;48.710;9.622;2022-12-29T02:22:01;4.10;99.90
4643;DHT22;2334;48.710;9.622;2022-12-29T02:27:56;4.10;99.90
4643;DHT22;2334;48.710;9.622;2022-12-29T02:30:45;4.10;99.90
4643;DHT22;2334;48.710;9.622;2022-12-29T02:33:37;4.10;99.90
4643;DHT22;2334;48.710;9.622;2022-12-29T02:36:14;4.10;99.90
4643;DHT22;2334;48.710;9.622;2022-12-29T02:38:51;4.10;99.90
4643;DHT22;2334;48.710;9.622;2022-12-29T02:41:24;4.10;99.90
4643;DHT22;2334;48.710;9.622;2022-12-29T02:44:01;4.10;99.90
4643;DHT22;2334;48.710;9.622;2022-12-29T02:46:35;4.10;99.90
4643;DHT22;2334;48.710;9.622;2022-12-29T02:49:07;4.10;99.90
4643;DHT22;2334;48.710;9.622;2022-12-29T02:51:41;4.10;99.90
4643;DHT22;2334;48.710;9.622;2022-12-29T02:54:10;4.10;99.90
4643;DHT22;2334;48.710;9.622;2022-12-29T02:56:55;4.20;99.90
4643;DHT22;2334;48.710;9.622;2022-12-29T02:59:22;4.20;99.90
4643;DHT22;2334;48.710;9.622;2022-12-29T03:02:05;4.20;99.90
4643;DHT22;2334;48.710;9.622;2022-12-29T03:05:15;4.20;99.90
4643;DHT22;2334;48.710;9.622;2022-12-29T03:07:49;4.20;99.90
4643;DHT22;2334;48.710;9.622;2022-12-29T03:10:29;4.10;99.90
4643;DHT22;2334;48.710;9.622;2022-12-29T03:13:02;4.20;99.90
4643;DHT22;2334;48.710;9.622;2022-12-29T03:15:54;4.30;99.90
4643;DHT22;2334;48.710;9.622;2022-12-29T03:18:44;4.20;99.90
4643;DHT22;2334;48.710;9.622;2022-12-29T03:21:15;4.20;99.90
4643;DHT22;2334;48.710;9.622;2022-12-29T03:23:45;4.20;99.90
4643;DHT22;2334;48.710;9.622;2022-12-29T03:26:16;4.20;99.90
4643;DHT22;2334;48.710;9.622;2022-12-29T03:28:47;4.20;99.90
4643;DHT22;2334;48.710;9.622;2022-12-29T03:31:16;4.20;99.90
4643;DHT22;2334;48.710;9.622;2022-12-29T03:33:46;4.20;99.90
4643;DHT22;2334;48.710;9.622;2022-12-29T03:36:19;4.20;99.90
4643;DHT22;2334;48.710;9.622;2022-12-29T03:38:55;4.20;99.90
4643;DHT22;2334;48.710;9.622;2022-12-29T03:41:27;4.20;99.90
4643;DHT22;2334;48.710;9.622;2022-12-29T03:43:55;4.20;99.90
4643;DHT22;2334;48.710;9.622;2022-12-29T03:46:22;4.20;99.90
4643;DHT22;2334;48.710;9.622;2022-12-29T03:48:50;4.30;99.90
4643;DHT22;2334;48.710;9.622;2022-12-29T03:51:17;4.30;99.90
4643;DHT22;2334;48.710;9.622;2022-12-29T03:53:44;4.20;99.90
4643;DHT22;2334;48.710;9.622;2022-12-29T03:56:11;4.20;99.90
4643;DHT22;2334;48.710;9.622;2022-12-29T03:58:38;4.20;99.90
4643;DHT22;2334;48.710;9.622;2022-12-29T04:01:04;4.10;99.90
4643;DHT22;2334;48.710;9.622;2022-12-29T04:03:31;4.10;99.90
4643;DHT22;2334;48.710;9.622;2022-12-29T04:05:59;4.10;99.90
4643;DHT22;2334;48.710;9.622;2022-12-29T04:08:26;4.10;99.90
4643;DHT22;2334;48.710;9.622;2022-12-29T04:10:53;4.10;99.90
4643;DHT22;2334;48.710;9.622;2022-12-29T04:13:20;4.10;99.90
4643;DHT22;2334;48.710;9.622;2022-12-29T04:15:47;4.10;99.90
4643;DHT22;2334;48.710;9.622;2022-12-29T04:18:14;4.00;99.90
4643;DHT22;2334;48.710;9.622;2022-12-29T04:20:41;4.00;99.90
4643;DHT22;2334;48.710;9.622;2022-12-29T04:23:28;4.00;99.90
4643;DHT22;2334;48.710;9.622;2022-12-29T04:25:55;4.00;99.90
4643;DHT22;2334;48.710;9.622;2022-12-29T04:28:22;4.00;99.90
4643;DHT22;2334;48.710;9.622;2022-12-29T04:30:48;4.00;99.90
4643;DHT22;2334;48.710;9.622;2022-12-29T04:33:15;4.00;99.90
4643;DHT22;2334;48.710;9.622;2022-12-29T04:35:43;4.00;99.90
4643;DHT22;2334;48.710;9.622;2022-12-29T04:38:10;3.90;99.90
4643;DHT22;2334;48.710;9.622;2022-12-29T04:40:39;3.90;99.90
4643;DHT22;2334;48.710;9.622;2022-12-29T04:43:06;3.90;99.90
4643;DHT22;2334;48.710;9.622;2022-12-29T04:45:33;3.80;99.90
4643;DHT22;2334;48.710;9.622;2022-12-29T04:48:00;3.70;99.90
4643;DHT22;2334;48.710;9.622;2022-12-29T04:50:27;3.80;99.90
4643;DHT22;2334;48.710;9.622;2022-12-29T04:52:54;3.70;99.90
4643;DHT22;2334;48.710;9.622;2022-12-29T04:55:21;3.70;99.90
4643;DHT22;2334;48.710;9.622;2022-12-29T04:57:49;3.70;99.90
4643;DHT22;2334;48.710;9.622;2022-12-29T05:00:16;3.70;99.90
4643;DHT22;2334;48.710;9.622;2022-12-29T05:02:43;3.70;99.90
4643;DHT22;2334;48.710;9.622;2022-12-29T05:05:10;3.70;99.90
4643;DHT22;2334;48.710;9.622;2022-12-29T05:07:37;3.60;99.90
4643;DHT22;2334;48.710;9.622;2022-12-29T05:10:05;3.60;99.90
4643;DHT22;2334;48.710;9.622;2022-12-29T05:12:32;3.60;99.90
4643;DHT22;2334;48.710;9.622;2022-12-29T05:15:01;3.50;99.90
4643;DHT22;2334;48.710;9.622;2022-12-29T05:17:28;3.50;99.90
4643;DHT22;2334;48.710;9.622;2022-12-29T05:19:55;3.40;99.90
4643;DHT22;2334;48.710;9.622;2022-12-29T05:22:22;3.40;99.90
4643;DHT22;2334;48.710;9.622;2022-12-29T05:24:49;3.40;99.90
4643;DHT22;2334;48.710;9.622;2022-12-29T05:27:16;3.30;99.90
4643;DHT22;2334;48.710;9.622;2022-12-29T05:29:43;3.30;99.90
4643;DHT22;2334;48.710;9.622;2022-12-29T05:32:11;3.20;99.90
4643;DHT22;2334;48.710;9.622;2022-12-29T05:34:38;3.20;99.90
4643;DHT22;2334;48.710;9.622;2022-12-29T05:37:05;3.20;99.90
4643;DHT22;2334;48.710;9.622;2022-12-29T05:39:32;3.20;99.90
4643;DHT22;2334;48.710;9.622;2022-12-29T05:41:59;3.20;99.90
4643;DHT22;2334;48.710;9.622;2022-12-29T05:44:26;3.20;99.90
4643;DHT22;2334;48.710;9.622;2022-12-29T05:46:52;3.20;99.90
4643;DHT22;2334;48.710;9.622;2022-12-29T05:49:21;3.20;99.90
4643;DHT22;2334;48.710;9.622;2022-12-29T05:51:47;3.20;99.90
4643;DHT22;2334;48.710;9.622;2022-12-29T05:54:14;3.20;99.90
4643;DHT22;2334;48.710;9.622;2022-12-29T05:56:41;3.20;99.90
4643;DHT22;2334;48.710;9.622;2022-12-29T05:59:08;3.10;99.90
4643;DHT22;2334;48.710;9.622;2022-12-29T06:01:35;3.10;99.90
4643;DHT22;2334;48.710;9.622;2022-12-29T06:04:02;3.10;99.90
4643;DHT22;2334;48.710;9.622;2022-12-29T06:06:30;3.10;99.90
4643;DHT22;2334;48.710;9.622;2022-12-29T06:08:57;3.00;99.90
4643;DHT22;2334;48.710;9.622;2022-12-29T06:11:24;3.00;99.90
4643;DHT22;2334;48.710;9.622;2022-12-29T06:13:51;3.00;99.90
4643;DHT22;2334;48.710;9.622;2022-12-29T06:16:18;3.10;99.90
4643;DHT22;2334;48.710;9.622;2022-12-29T06:18:45;3.10;99.90
4643;DHT22;2334;48.710;9.622;2022-12-29T06:21:12;3.10;99.90
4643;DHT22;2334;48.710;9.622;2022-12-29T06:23:40;3.00;99.90
4643;DHT22;2334;48.710;9.622;2022-12-29T06:26:07;3.00;99.90
4643;DHT22;2334;48.710;9.622;2022-12-29T06:28:34;3.00;99.90
4643;DHT22;2334;48.710;9.622;2022-12-29T06:31:01;3.00;99.90
4643;DHT22;2334;48.710;9.622;2022-12-29T06:33:28;3.00;99.90
4643;DHT22;2334;48.710;9.622;2022-12-29T06:35:55;2.90;99.90
4643;DHT22;2334;48.710;9.622;2022-12-29T06:38:22;2.90;99.90
4643;DHT22;2334;48.710;9.622;2022-12-29T06:40:50;2.90;99.90
4643;DHT22;2334;48.710;9.622;2022-12-29T06:43:17;3.00;99.90
4643;DHT22;2334;48.710;9.622;2022-12-29T06:45:44;3.10;99.90
4643;DHT22;2334;48.710;9.622;2022-12-29T06:48:11;3.20;99.90
4643;DHT22;2334;48.710;9.622;2022-12-29T06:50:38;3.20;99.90
4643;DHT22;2334;48.710;9.622;2022-12-29T06:53:05;3.30;99.90
4643;DHT22;2334;48.710;9.622;2022-12-29T06:55:32;3.20;99.90
4643;DHT22;2334;48.710;9.622;2022-12-29T06:58:00;3.20;99.90
4643;DHT22;2334;48.710;9.622;2022-12-29T07:00:27;3.20;99.90
4643;DHT22;2334;48.710;9.622;2022-12-29T07:02:55;3.20;99.90
4643;DHT22;2334;48.710;9.622;2022-12-29T07:05:22;3.20;99.90
4643;DHT22;2334;48.710;9.622;2022-12-29T07:07:48;3.20;99.90
4643;DHT22;2334;48.710;9.622;2022-12-29T07:10:15;3.20;99.90
4643;DHT22;2334;48.710;9.622;2022-12-29T07:12:42;3.20;99.90
4643;DHT22;2334;48.710;9.622;2022-12-29T07:15:12;3.30;99.90
4643;DHT22;2334;48.710;9.622;2022-12-29T07:17:39;3.30;99.90
4643;DHT22;2334;48.710;9.622;2022-12-29T07:20:07;3.30;99.90
4643;DHT22;2334;48.710;9.622;2022-12-29T07:22:34;3.30;99.90
4643;DHT22;2334;48.710;9.622;2022-12-29T07:25:02;3.30;99.90
4643;DHT22;2334;48.710;9.622;2022-12-29T07:27:29;3.30;99.90
4643;DHT22;2334;48.710;9.622;2022-12-29T07:29:56;3.30;99.90
4643;DHT22;2334;48.710;9.622;2022-12-29T07:32:24;3.20;99.90
4643;DHT22;2334;48.710;9.622;2022-12-29T07:34:51;3.20;99.90
4643;DHT22;2334;48.710;9.622;2022-12-29T07:37:18;3.10;99.90
4643;DHT22;2334;48.710;9.622;2022-12-29T07:39:45;3.10;99.90
4643;DHT22;2334;48.710;9.622;2022-12-29T07:42:12;3.10;99.90
4643;DHT22;2334;48.710;9.622;2022-12-29T07:44:39;3.10;99.90
4643;DHT22;2334;48.710;9.622;2022-12-29T07:47:06;3.20;99.90
4643;DHT22;2334;48.710;9.622;2022-12-29T07:49:34;3.20;99.90
4643;DHT22;2334;48.710;9.622;2022-12-29T07:52:01;3.30;99.90
4643;DHT22;2334;48.710;9.622;2022-12-29T07:54:28;3.30;99.90
4643;DHT22;2334;48.710;9.622;2022-12-29T07:56:55;3.30;99.90
4643;DHT22;2334;48.710;9.622;2022-12-29T07:59:23;3.40;99.90
4643;DHT22;2334;48.710;9.622;2022-12-29T08:01:49;3.40;99.90
4643;DHT22;2334;48.710;9.622;2022-12-29T08:04:16;3.40;99.90
4643;DHT22;2334;48.710;9.622;2022-12-29T08:06:44;3.50;99.90
4643;DHT22;2334;48.710;9.622;2022-12-29T08:09:12;3.60;99.90
4643;DHT22;2334;48.710;9.622;2022-12-29T08:11:39;3.60;99.90
4643;DHT22;2334;48.710;9.622;2022-12-29T08:14:06;3.70;99.90
4643;DHT22;2334;48.710;9.622;2022-12-29T08:16:33;3.90;99.90
4643;DHT22;2334;48.710;9.622;2022-12-29T08:19:00;3.90;99.90
4643;DHT22;2334;48.710;9.622;2022-12-29T08:21:27;4.00;99.90
4643;DHT22;2334;48.710;9.622;2022-12-29T08:23:55;4.20;99.90
4643;DHT22;2334;48.710;9.622;2022-12-29T08:26:22;4.30;99.90
4643;DHT22;2334;48.710;9.622;2022-12-29T08:28:52;4.70;99.90
4643;DHT22;2334;48.710;9.622;2022-12-29T08:31:19;5.30;99.90
4643;DHT22;2334;48.710;9.622;2022-12-29T08:33:46;6.60;99.90
4643;DHT22;2334;48.710;9.622;2022-12-29T08:36:13;7.20;99.90
4643;DHT22;2334;48.710;9.622;2022-12-29T08:38:40;7.80;99.90
4643;DHT22;2334;48.710;9.622;2022-12-29T08:41:08;8.20;99.90
4643;DHT22;2334;48.710;9.622;2022-12-29T08:43:35;8.70;99.90
4643;DHT22;2334;48.710;9.622;2022-12-29T08:46:02;9.00;99.90
4643;DHT22;2334;48.710;9.622;2022-12-29T08:48:32;9.30;99.90
4643;DHT22;2334;48.710;9.622;2022-12-29T08:50:59;9.60;99.90
4643;DHT22;2334;48.710;9.622;2022-12-29T08:53:26;10.10;99.90
4643;DHT22;2334;48.710;9.622;2022-12-29T08:55:58;10.20;99.90
4643;DHT22;2334;48.710;9.622;2022-12-29T08:58:27;10.30;99.90
4643;DHT22;2334;48.710;9.622;2022-12-29T09:00:55;10.30;99.90
4643;DHT22;2334;48.710;9.622;2022-12-29T09:03:23;10.60;99.90
4643;DHT22;2334;48.710;9.622;2022-12-29T09:05:50;10.60;99.90
4643;DHT22;2334;48.710;9.622;2022-12-29T09:08:18;11.00;99.90
4643;DHT22;2334;48.710;9.622;2022-12-29T09:10:45;10.90;99.90
4643;DHT22;2334;48.710;9.622;2022-12-29T09:13:13;11.20;99.90
4643;DHT22;2334;48.710;9.622;2022-12-29T09:15:42;11.20;99.90
4643;DHT22;2334;48.710;9.622;2022-12-29T09:18:10;11.20;99.90
4643;DHT22;2334;48.710;9.622;2022-12-29T09:20:37;11.30;99.90
4643;DHT22;2334;48.710;9.622;2022-12-29T09:23:04;11.20;99.90
4643;DHT22;2334;48.710;9.622;2022-12-29T09:25:32;11.30;99.90
4643;DHT22;2334;48.710;9.622;2022-12-29T09:27:59;11.20;99.90
4643;DHT22;2334;48.710;9.622;2022-12-29T09:30:29;11.10;99.90
4643;DHT22;2334;48.710;9.622;2022-12-29T09:32:57;11.20;99.90
4643;DHT22;2334;48.710;9.622;2022-12-29T09:35:24;11.30;99.90
4643;DHT22;2334;48.710;9.622;2022-12-29T09:37:51;11.30;99.90
4643;DHT22;2334;48.710;9.622;2022-12-29T09:40:27;11.20;99.90
4643;DHT22;2334;48.710;9.622;2022-12-29T09:43:12;11.30;99.90
4643;DHT22;2334;48.710;9.622;2022-12-29T09:45:44;11.20;99.90
4643;DHT22;2334;48.710;9.622;2022-12-29T09:48:18;11.00;99.90
4643;DHT22;2334;48.710;9.622;2022-12-29T09:50:50;11.10;99.90
4643;DHT22;2334;48.710;9.622;2022-12-29T09:53:23;11.30;99.90
4643;DHT22;2334;48.710;9.622;2022-12-29T09:55:55;11.50;99.90
4643;DHT22;2334;48.710;9.622;2022-12-29T09:58:26;11.60;99.90
4643;DHT22;2334;48.710;9.622;2022-12-29T10:01:00;11.60;99.90
4643;DHT22;2334;48.710;9.622;2022-12-29T10:03:41;11.60;99.90
4643;DHT22;2334;48.710;9.622;2022-12-29T10:06:13;11.60;99.90
4643;DHT22;2334;48.710;9.622;2022-12-29T10:08:47;11.50;99.90
4643;DHT22;2334;48.710;9.622;2022-12-29T10:11:25;11.50;99.90
4643;DHT22;2334;48.710;9.622;2022-12-29T10:14:12;11.60;99.90
4643;DHT22;2334;48.710;9.622;2022-12-29T10:16:50;11.60;99.90
4643;DHT22;2334;48.710;9.622;2022-12-29T10:19:32;11.60;99.90
4643;DHT22;2334;48.710;9.622;2022-12-29T10:22:09;11.70;99.90
4643;DHT22;2334;48.710;9.622;2022-12-29T10:24:40;11.80;99.90
4643;DHT22;2334;48.710;9.622;2022-12-29T10:27:11;11.70;99.90
4643;DHT22;2334;48.710;9.622;2022-12-29T10:29:42;11.80;99.90
4643;DHT22;2334;48.710;9.622;2022-12-29T10:32:21;11.80;99.90
4643;DHT22;2334;48.710;9.622;2022-12-29T10:34:53;11.70;99.90
4643;DHT22;2334;48.710;9.622;2022-12-29T10:37:29;11.70;99.90
4643;DHT22;2334;48.710;9.622;2022-12-29T10:39:58;11.70;99.90
4643;DHT22;2334;48.710;9.622;2022-12-29T10:42:27;11.80;99.90
4643;DHT22;2334;48.710;9.622;2022-12-29T10:44:55;11.80;99.90
4643;DHT22;2334;48.710;9.622;2022-12-29T10:47:26;11.80;99.90
4643;DHT22;2334;48.710;9.622;2022-12-29T10:49:57;11.80;99.90
4643;DHT22;2334;48.710;9.622;2022-12-29T10:52:26;11.90;99.90
4643;DHT22;2334;48.710;9.622;2022-12-29T10:54:57;11.90;99.90
4643;DHT22;2334;48.710;9.622;2022-12-29T10:57:28;11.90;99.90
4643;DHT22;2334;48.710;9.622;2022-12-29T10:59:58;12.00;99.90
4643;DHT22;2334;48.710;9.622;2022-12-29T11:02:47;12.00;99.90
4643;DHT22;2334;48.710;9.622;2022-12-29T11:05:23;12.00;99.90
4643;DHT22;2334;48.710;9.622;2022-12-29T11:07:53;12.00;99.90
4643;DHT22;2334;48.710;9.622;2022-12-29T11:10:30;11.90;99.90
4643;DHT22;2334;48.710;9.622;2022-12-29T11:13:03;12.00;99.90
4643;DHT22;2334;48.710;9.622;2022-12-29T11:15:39;11.80;99.90
4643;DHT22;2334;48.710;9.622;2022-12-29T11:18:18;11.80;99.90
4643;DHT22;2334;48.710;9.622;2022-12-29T11:20:47;11.70;99.90
4643;DHT22;2334;48.710;9.622;2022-12-29T11:23:26;11.80;99.90
4643;DHT22;2334;48.710;9.622;2022-12-29T11:26:14;12.00;99.90
4643;DHT22;2334;48.710;9.622;2022-12-29T11:28:43;12.00;99.90
4643;DHT22;2334;48.710;9.622;2022-12-29T11:31:10;12.10;99.90
4643;DHT22;2334;48.710;9.622;2022-12-29T11:33:38;12.20;99.90
4643;DHT22;2334;48.710;9.622;2022-12-29T11:36:11;12.40;99.90
4643;DHT22;2334;48.710;9.622;2022-12-29T11:38:41;12.40;99.90
4643;DHT22;2334;48.710;9.622;2022-12-29T11:41:12;12.50;99.90
4643;DHT22;2334;48.710;9.622;2022-12-29T11:43:42;12.70;99.90
4643;DHT22;2334;48.710;9.622;2022-12-29T11:46:16;12.70;99.90
4643;DHT22;2334;48.710;9.622;2022-12-29T11:48:43;12.70;99.90
4643;DHT22;2334;48.710;9.622;2022-12-29T11:51:21;12.80;99.90
4643;DHT22;2334;48.710;9.622;2022-12-29T11:53:50;12.70;99.90
4643;DHT22;2334;48.710;9.622;2022-12-29T11:56:21;12.70;99.90
4643;DHT22;2334;48.710;9.622;2022-12-29T11:58:50;12.70;99.90
4643;DHT22;2334;48.710;9.622;2022-12-29T12:01:20;12.70;99.90
4643;DHT22;2334;48.710;9.622;2022-12-29T12:03:56;12.70;99.90
4643;DHT22;2334;48.710;9.622;2022-12-29T12:06:27;12.60;99.90
4643;DHT22;2334;48.710;9.622;2022-12-29T12:08:57;12.60;99.90
4643;DHT22;2334;48.710;9.622;2022-12-29T12:11:39;12.60;99.90
4643;DHT22;2334;48.710;9.622;2022-12-29T12:14:14;12.50;99.90
4643;DHT22;2334;48.710;9.622;2022-12-29T12:16:47;12.40;99.90
4643;DHT22;2334;48.710;9.622;2022-12-29T12:19:26;12.40;99.90
4643;DHT22;2334;48.710;9.622;2022-12-29T12:22:03;12.30;99.90
4643;DHT22;2334;48.710;9.622;2022-12-29T12:24:41;12.20;99.90
4643;DHT22;2334;48.710;9.622;2022-12-29T12:27:13;12.20;99.90
4643;DHT22;2334;48.710;9.622;2022-12-29T12:29:50;12.10;99.90
4643;DHT22;2334;48.710;9.622;2022-12-29T12:32:23;12.10;99.90
4643;DHT22;2334;48.710;9.622;2022-12-29T12:34:52;12.00;99.90
4643;DHT22;2334;48.710;9.622;2022-12-29T12:37:48;12.00;99.90
4643;DHT22;2334;48.710;9.622;2022-12-29T12:40:34;12.00;99.90
4643;DHT22;2334;48.710;9.622;2022-12-29T12:43:25;12.10;99.90
4643;DHT22;2334;48.710;9.622;2022-12-29T12:46:04;12.00;99.90
4643;DHT22;2334;48.710;9.622;2022-12-29T12:48:52;12.00;99.90
4643;DHT22;2334;48.710;9.622;2022-12-29T12:51:32;11.90;99.90
4643;DHT22;2334;48.710;9.622;2022-12-29T12:54:19;12.00;99.90
4643;DHT22;2334;48.710;9.622;2022-12-29T12:57:00;12.00;99.90
4643;DHT22;2334;48.710;9.622;2022-12-29T12:59:40;12.00;99.90
4643;DHT22;2334;48.710;9.622;2022-12-29T13:02:19;12.10;99.90
4643;DHT22;2334;48.710;9.622;2022-12-29T13:05:12;12.10;99.90
4643;DHT22;2334;48.710;9.622;2022-12-29T13:07:48;12.10;99.90
4643;DHT22;2334;48.710;9.622;2022-12-29T13:10:40;12.10;99.90
4643;DHT22;2334;48.710;9.622;2022-12-29T13:13:32;12.10;99.90
4643;DHT22;2334;48.710;9.622;2022-12-29T13:16:09;12.20;99.90
4643;DHT22;2334;48.710;9.622;2022-12-29T13:18:46;12.10;99.90
4643;DHT22;2334;48.710;9.622;2022-12-29T13:21:27;12.10;99.90
4643;DHT22;2334;48.710;9.622;2022-12-29T13:24:01;12.00;99.90
4643;DHT22;2334;48.710;9.622;2022-12-29T13:26:33;12.00;99.90
4643;DHT22;2334;48.710;9.622;2022-12-29T13:29:10;12.00;99.90
4643;DHT22;2334;48.710;9.622;2022-12-29T13:31:46;12.00;99.90
4643;DHT22;2334;48.710;9.622;2022-12-29T13:34:24;12.00;99.90
4643;DHT22;2334;48.710;9.622;2022-12-29T13:36:56;12.00;99.90
4643;DHT22;2334;48.710;9.622;2022-12-29T13:39:28;12.00;99.90
4643;DHT22;2334;48.710;9.622;2022-12-29T13:41:59;11.90;99.90
4643;DHT22;2334;48.710;9.622;2022-12-29T13:44:31;11.90;99.90
4643;DHT22;2334;48.710;9.622;2022-12-29T13:47:02;11.80;99.90
4643;DHT22;2334;48.710;9.622;2022-12-29T13:49:33;11.80;99.90
4643;DHT22;2334;48.710;9.622;2022-12-29T13:52:10;11.80;99.90
4643;DHT22;2334;48.710;9.622;2022-12-29T13:54:43;11.70;99.90
4643;DHT22;2334;48.710;9.622;2022-12-29T13:57:31;11.70;99.90
4643;DHT22;2334;48.710;9.622;2022-12-29T14:00:04;11.70;99.90
4643;DHT22;2334;48.710;9.622;2022-12-29T14:02:50;11.60;99.90
4643;DHT22;2334;48.710;9.622;2022-12-29T14:05:31;11.60;99.90
4643;DHT22;2334;48.710;9.622;2022-12-29T14:07:59;11.50;99.90
4643;DHT22;2334;48.710;9.622;2022-12-29T14:10:29;11.50;99.90
4643;DHT22;2334;48.710;9.622;2022-12-29T14:13:09;11.60;99.90
4643;DHT22;2334;48.710;9.622;2022-12-29T14:15:38;11.80;99.90
4643;DHT22;2334;48.710;9.622;2022-12-29T14:18:16;11.80;99.90
4643;DHT22;2334;48.710;9.622;2022-12-29T14:20:51;12.00;99.90
4643;DHT22;2334;48.710;9.622;2022-12-29T14:23:28;12.00;99.90
4643;DHT22;2334;48.710;9.622;2022-12-29T14:26:10;12.00;99.90
4643;DHT22;2334;48.710;9.622;2022-12-29T14:28:40;12.00;99.90
4643;DHT22;2334;48.710;9.622;2022-12-29T14:31:34;12.10;99.90
4643;DHT22;2334;48.710;9.622;2022-12-29T14:34:28;12.20;99.90
4643;DHT22;2334;48.710;9.622;2022-12-29T14:37:00;12.20;99.90
4643;DHT22;2334;48.710;9.622;2022-12-29T14:39:35;12.20;99.90
4643;DHT22;2334;48.710;9.622;2022-12-29T14:42:05;12.10;99.90
4643;DHT22;2334;48.710;9.622;2022-12-29T14:44:34;12.20;99.90
4643;DHT22;2334;48.710;9.622;2022-12-29T14:47:18;12.10;99.90
4643;DHT22;2334;48.710;9.622;2022-12-29T14:49:46;12.10;99.90
4643;DHT22;2334;48.710;9.622;2022-12-29T14:52:17;12.00;99.90
4643;DHT22;2334;48.710;9.622;2022-12-29T14:54:51;11.90;99.90
4643;DHT22;2334;48.710;9.622;2022-12-29T14:57:32;11.90;99.90
4643;DHT22;2334;48.710;9.622;2022-12-29T15:00:18;11.80;99.90
4643;DHT22;2334;48.710;9.622;2022-12-29T15:02:47;11.70;99.90
4643;DHT22;2334;48.710;9.622;2022-12-29T15:05:34;11.60;99.90
4643;DHT22;2334;48.710;9.622;2022-12-29T15:08:04;11.50;99.90
4643;DHT22;2334;48.710;9.622;2022-12-29T15:10:39;11.50;99.90
4643;DHT22;2334;48.710;9.622;2022-12-29T15:13:16;11.40;99.90
4643;DHT22;2334;48.710;9.622;2022-12-29T15:15:44;11.30;99.90
4643;DHT22;2334;48.710;9.622;2022-12-29T15:18:21;11.30;99.90
4643;DHT22;2334;48.710;9.622;2022-12-29T15:20:51;11.10;99.90
4643;DHT22;2334;48.710;9.622;2022-12-29T15:23:20;11.10;99.90
4643;DHT22;2334;48.710;9.622;2022-12-29T15:25:49;11.10;99.90
4643;DHT22;2334;48.710;9.622;2022-12-29T15:28:17;11.10;99.90
4643;DHT22;2334;48.710;9.622;2022-12-29T15:31:05;11.20;99.90
4643;DHT22;2334;48.710;9.622;2022-12-29T15:33:38;11.20;99.90
4643;DHT22;2334;48.710;9.622;2022-12-29T15:36:11;11.10;99.90
4643;DHT22;2334;48.710;9.622;2022-12-29T15:38:39;11.00;99.90
4643;DHT22;2334;48.710;9.622;2022-12-29T15:41:13;11.10;99.90
4643;DHT22;2334;48.710;9.622;2022-12-29T15:43:51;10.90;99.90
4643;DHT22;2334;48.710;9.622;2022-12-29T15:46:21;10.80;99.90
4643;DHT22;2334;48.710;9.622;2022-12-29T15:48:48;10.80;99.90
4643;DHT22;2334;48.710;9.622;2022-12-29T15:51:19;10.70;99.90
4643;DHT22;2334;48.710;9.622;2022-12-29T15:53:48;10.70;99.90
4643;DHT22;2334;48.710;9.622;2022-12-29T15:56:16;10.70;99.90
4643;DHT22;2334;48.710;9.622;2022-12-29T15:58:45;10.60;99.90
4643;DHT22;2334;48.710;9.622;2022-12-29T16:01:18;10.90;99.90
4643;DHT22;2334;48.710;9.622;2022-12-29T16:03:47;10.90;99.90
4643;DHT22;2334;48.710;9.622;2022-12-29T16:06:29;10.90;99.90
4643;DHT22;2334;48.710;9.622;2022-12-29T16:08:59;10.90;99.90
4643;DHT22;2334;48.710;9.622;2022-12-29T16:11:29;10.80;99.90
4643;DHT22;2334;48.710;9.622;2022-12-29T16:13:58;10.80;99.90
4643;DHT22;2334;48.710;9.622;2022-12-29T16:16:27;10.80;99.90
4643;DHT22;2334;48.710;9.622;2022-12-29T16:18:57;10.80;99.90
4643;DHT22;2334;48.710;9.622;2022-12-29T16:21:27;10.90;99.90
4643;DHT22;2334;48.710;9.622;2022-12-29T16:23:59;11.00;99.90
4643;DHT22;2334;48.710;9.622;2022-12-29T16:26:27;10.90;99.90
4643;DHT22;2334;48.710;9.622;2022-12-29T16:28:57;10.90;99.90
4643;DHT22;2334;48.710;9.622;2022-12-29T16:31:32;10.80;99.90
4643;DHT22;2334;48.710;9.622;2022-12-29T16:34:10;10.60;99.90
4643;DHT22;2334;48.710;9.622;2022-12-29T16:36:51;10.50;99.90
4643;DHT22;2334;48.710;9.622;2022-12-29T16:39:30;10.40;99.90
4643;DHT22;2334;48.710;9.622;2022-12-29T16:41:57;10.30;99.90
4643;DHT22;2334;48.710;9.622;2022-12-29T16:44:25;10.20;99.90